Time;durP1;ratioP1;P1;durP2;ratioP2;P2;SDS_P1;SDS_P2;PMS_P1;PMS_P2;Temp;Humidity;BMP_temperature;BMP_pressure;BME280_temperature;BME280_humidity;BME280_pressure;Samples;Min_cycle;Max_cycle;Signal;HPM_P1;HPM_P2
2023/10/17 00:01:32;;;;;;;4.07;2.28;;;;;;;;;;5070795;28;20040;-72
2023/10/17 00:03:59;;;;;;;6.95;3.05;;;;;;;;;;5067910;28;20040;-72
2023/10/17 00:06:26;;;;;;;5.00;3.25;;;;;;;;;;5073831;28;20182;-72
2023/10/17 00:08:52;;;;;;;5.38;2.97;;;;;;;;;;5056575;28;20090;-73
2023/10/17 00:11:20;;;;;;;7.13;3.17;;;;;;;;;;5054534;28;20044;-72
2023/10/17 00:13:59;;;;;;;6.68;3.45;;;;;;;;;;5071999;28;20036;-73
2023/10/17 00:16:26;;;;;;;3.47;2.40;;;;;;;;;;5072750;28;20044;-73
2023/10/17 00:18:52;;;;;;;6.63;3.30;;;;;;;;;;5071532;28;20039;-72
2023/10/17 00:21:26;;;;;;;3.20;2.47;;;;;;;;;;5056122;28;20123;-73
2023/10/17 00:23:52;;;;;;;4.55;3.00;;;;;;;;;;5073436;28;20037;-73
2023/10/17 00:26:19;;;;;;;5.53;3.20;;;;;;;;;;5072964;28;20415;-73
2023/10/17 00:28:48;;;;;;;5.80;3.00;;;;;;;;;;5054804;28;20040;-73
2023/10/17 00:31:14;;;;;;;6.13;3.00;;;;;;;;;;5055339;28;20132;-72
2023/10/17 00:33:41;;;;;;;4.63;3.00;;;;;;;;;;5055548;28;20043;-72
2023/10/17 00:36:14;;;;;;;6.82;4.05;;;;;;;;;;5055873;28;20070;-72
2023/10/17 00:38:43;;;;;;;6.70;3.40;;;;;;;;;;5048390;28;20059;-72
2023/10/17 00:41:10;;;;;;;6.63;2.60;;;;;;;;;;5073555;28;20093;-72
2023/10/17 00:43:37;;;;;;;4.43;3.17;;;;;;;;;;5073776;28;20071;-72
2023/10/17 00:46:07;;;;;;;7.10;3.20;;;;;;;;;;5056074;28;20414;-72
2023/10/17 00:48:34;;;;;;;4.63;3.33;;;;;;;;;;5071685;28;20047;-72
2023/10/17 00:51:09;;;;;;;5.60;3.17;;;;;;;;;;5072547;28;20496;-73
2023/10/17 00:53:39;;;;;;;3.72;2.97;;;;;;;;;;5065614;28;20035;-73
2023/10/17 00:56:06;;;;;;;7.32;3.35;;;;;;;;;;5073503;28;20548;-73
2023/10/17 00:58:33;;;;;;;6.65;3.58;;;;;;;;;;5054473;28;20032;-73
2023/10/17 01:03:42;;;;;;;5.72;3.72;;;;;;;;;;5065765;28;20076;-73
2023/10/17 01:08:49;;;;;;;7.88;3.42;;;;;;;;;;5073068;28;20040;-73
2023/10/17 01:11:21;;;;;;;5.47;3.22;;;;;;;;;;5062168;28;20436;-73
2023/10/17 01:13:49;;;;;;;5.65;3.22;;;;;;;;;;5068371;28;20046;-73
2023/10/17 01:16:16;;;;;;;5.28;3.38;;;;;;;;;;5072001;28;20047;-73
2023/10/17 01:18:46;;;;;;;4.10;3.10;;;;;;;;;;5072911;28;20410;-73
2023/10/17 01:21:21;;;;;;;5.95;3.63;;;;;;;;;;5072247;28;20036;-73
2023/10/17 01:23:48;;;;;;;7.60;3.70;;;;;;;;;;5072433;28;20044;-73
2023/10/17 01:26:14;;;;;;;6.25;3.47;;;;;;;;;;5072822;28;20036;-73
2023/10/17 01:28:47;;;;;;;9.60;3.78;;;;;;;;;;5072698;28;20075;-73
2023/10/17 01:31:22;;;;;;;4.57;3.40;;;;;;;;;;5054209;28;20044;-73
2023/10/17 01:33:48;;;;;;;7.28;3.47;;;;;;;;;;5054265;28;20075;-73
2023/10/17 01:36:16;;;;;;;4.75;3.38;;;;;;;;;;5073005;28;20041;-73
2023/10/17 01:38:42;;;;;;;6.80;3.63;;;;;;;;;;5054268;28;20044;-73
2023/10/17 01:41:11;;;;;;;5.80;3.03;;;;;;;;;;5071570;28;20040;-73
2023/10/17 01:43:40;;;;;;;6.25;3.30;;;;;;;;;;5072358;28;20556;-73
2023/10/17 01:46:14;;;;;;;4.32;3.10;;;;;;;;;;5068012;28;20040;-73
2023/10/17 01:48:44;;;;;;;4.95;3.38;;;;;;;;;;5047869;28;20051;-73
2023/10/17 01:51:12;;;;;;;4.75;3.20;;;;;;;;;;5072331;28;20040;-73
2023/10/17 01:53:39;;;;;;;5.50;3.10;;;;;;;;;;5071312;28;20044;-73
2023/10/17 01:56:13;;;;;;;4.82;3.13;;;;;;;;;;5071707;28;20066;-73
2023/10/17 01:58:42;;;;;;;6.50;3.70;;;;;;;;;;5062706;28;20081;-73
2023/10/17 02:01:13;;;;;;;5.13;3.13;;;;;;;;;;5065642;28;20094;-73
2023/10/17 02:03:40;;;;;;;4.13;3.00;;;;;;;;;;5063120;28;20037;-73
2023/10/17 02:06:14;;;;;;;6.15;3.58;;;;;;;;;;5052187;28;20402;-73
2023/10/17 02:08:41;;;;;;;4.55;3.03;;;;;;;;;;5059198;28;20486;-73
2023/10/17 02:11:23;;;;;;;6.57;3.25;;;;;;;;;;5068465;28;20115;-73
2023/10/17 02:13:49;;;;;;;4.95;3.05;;;;;;;;;;5065736;28;20036;-73
2023/10/17 02:16:16;;;;;;;4.57;2.85;;;;;;;;;;5071482;28;20502;-73
2023/10/17 02:18:42;;;;;;;3.97;2.80;;;;;;;;;;5070783;28;20071;-73
2023/10/17 02:21:08;;;;;;;8.00;3.70;;;;;;;;;;5069946;28;20044;-73
2023/10/17 02:23:39;;;;;;;3.92;2.88;;;;;;;;;;5072238;28;20043;-73
2023/10/17 02:26:10;;;;;;;5.88;3.65;;;;;;;;;;5072764;28;20041;-73
2023/10/17 02:28:46;;;;;;;6.57;3.13;;;;;;;;;;5071366;28;20551;-73
2023/10/17 02:31:12;;;;;;;4.93;3.15;;;;;;;;;;5070783;28;20414;-73
2023/10/17 02:33:44;;;;;;;6.88;3.72;;;;;;;;;;5071412;28;20036;-73
2023/10/17 02:36:13;;;;;;;5.82;3.38;;;;;;;;;;5069879;28;20490;-73
2023/10/17 02:38:45;;;;;;;4.22;3.08;;;;;;;;;;5071622;28;20033;-73
2023/10/17 02:41:28;;;;;;;4.90;3.17;;;;;;;;;;5052736;28;20048;-73
2023/10/17 02:43:55;;;;;;;5.57;3.28;;;;;;;;;;5047991;28;20037;-73
2023/10/17 02:46:26;;;;;;;5.50;2.92;;;;;;;;;;5071583;28;20052;-73
2023/10/17 02:48:53;;;;;;;4.53;2.80;;;;;;;;;;5070518;28;20103;-73
2023/10/17 02:53:51;;;;;;;5.93;3.38;;;;;;;;;;5050966;28;20048;-73
2023/10/17 02:56:20;;;;;;;5.68;3.25;;;;;;;;;;5036470;28;20101;-73
2023/10/17 02:59:29;;;;;;;4.68;3.13;;;;;;;;;;5057305;28;20041;-73
2023/10/17 03:01:36;;;;;;;5.03;3.40;;;;;;;;;;5043067;28;20510;-73
2023/10/17 03:04:09;;;;;;;4.97;3.33;;;;;;;;;;5058243;28;20521;-73
2023/10/17 03:06:38;;;;;;;5.65;3.05;;;;;;;;;;5068896;28;20426;-73
2023/10/17 03:11:48;;;;;;;6.68;3.05;;;;;;;;;;5061799;28;20580;-73
2023/10/17 03:14:19;;;;;;;3.55;2.65;;;;;;;;;;5062307;28;20052;-73
2023/10/17 03:16:52;;;;;;;;;;;;;;;;;;5054996;28;20037;-73
2023/10/17 03:19:18;;;;;;;3.00;2.58;;;;;;;;;;5061447;28;19920;-73
2023/10/17 03:21:44;;;;;;;4.40;3.00;;;;;;;;;;5033357;28;20037;-73
2023/10/17 03:24:12;;;;;;;5.00;3.03;;;;;;;;;;5044422;28;20045;-73
2023/10/17 03:26:39;;;;;;;5.05;2.75;;;;;;;;;;5064040;28;20037;-73
2023/10/17 03:29:18;;;;;;;5.55;3.00;;;;;;;;;;5107318;22;20056;-71
2023/10/17 03:31:52;;;;;;;5.45;2.47;;;;;;;;;;5096018;28;20063;-71
2023/10/17 03:34:28;;;;;;;5.10;2.63;;;;;;;;;;5096166;28;20097;-71
2023/10/17 03:36:55;;;;;;;3.85;2.58;;;;;;;;;;5090245;28;20059;-71
2023/10/17 03:39:26;;;;;;;4.20;2.80;;;;;;;;;;5073631;28;20044;-71
2023/10/17 03:41:58;;;;;;;4.35;2.38;;;;;;;;;;5074592;28;20546;-71
2023/10/17 03:44:31;;;;;;;4.82;2.83;;;;;;;;;;5072859;28;20040;-71
2023/10/17 03:47:04;;;;;;;2.38;2.10;;;;;;;;;;5074756;28;20094;-71
2023/10/17 03:49:36;;;;;;;4.15;2.28;;;;;;;;;;5075017;28;20076;-71
2023/10/17 03:52:06;;;;;;;3.20;2.00;;;;;;;;;;5075170;28;20048;-71
2023/10/17 03:54:38;;;;;;;4.57;2.30;;;;;;;;;;5073907;28;20045;-71
2023/10/17 03:57:04;;;;;;;4.18;1.98;;;;;;;;;;5074499;28;20517;-71
2023/10/17 03:59:40;;;;;;;4.45;2.20;;;;;;;;;;5072789;28;20445;-71
2023/10/17 04:02:12;;;;;;;5.55;2.63;;;;;;;;;;5067356;28;20055;-72
2023/10/17 04:04:49;;;;;;;4.72;2.47;;;;;;;;;;5069747;28;20450;-71
2023/10/17 04:07:16;;;;;;;4.85;2.50;;;;;;;;;;5072308;28;20127;-71
2023/10/17 04:10:19;;;;;;;3.85;2.42;;;;;;;;;;5074418;28;20068;-71
2023/10/17 04:12:48;;;;;;;3.22;1.92;;;;;;;;;;5067054;28;20043;-71
2023/10/17 04:15:18;;;;;;;3.97;2.08;;;;;;;;;;5073360;28;20048;-71
2023/10/17 04:17:46;;;;;;;5.85;2.10;;;;;;;;;;5070945;28;20052;-71
2023/10/17 04:20:13;;;;;;;3.88;2.45;;;;;;;;;;5071474;28;20044;-70
2023/10/17 04:22:39;;;;;;;2.88;2.20;;;;;;;;;;5072132;28;20071;-71
2023/10/17 04:27:54;;;;;;;4.05;2.15;;;;;;;;;;5069487;28;20053;-71
2023/10/17 04:30:29;;;;;;;3.72;2.63;;;;;;;;;;5066576;28;20060;-71
2023/10/17 04:33:05;;;;;;;4.22;2.33;;;;;;;;;;5053716;28;20044;-71
2023/10/17 04:35:32;;;;;;;3.50;2.42;;;;;;;;;;5072928;28;20110;-71
2023/10/17 04:38:19;;;;;;;4.43;2.25;;;;;;;;;;5055069;28;20041;-72
2023/10/17 04:40:53;;;;;;;4.40;2.83;;;;;;;;;;5066860;28;20064;-71
2023/10/17 04:46:08;;;;;;;3.70;2.30;;;;;;;;;;5071592;28;20397;-71
2023/10/17 04:48:40;;;;;;;2.92;2.35;;;;;;;;;;5072889;28;20524;-71
2023/10/17 04:53:48;;;;;;;3.58;2.10;;;;;;;;;;5058516;28;20094;-71
2023/10/17 04:56:23;;;;;;;3.53;2.15;;;;;;;;;;5069363;28;20033;-71
2023/10/17 04:58:56;;;;;;;3.42;2.67;;;;;;;;;;5070309;28;20045;-71
2023/10/17 05:01:35;;;;;;;3.78;2.60;;;;;;;;;;5072139;28;20044;-71
2023/10/17 05:04:03;;;;;;;4.43;2.40;;;;;;;;;;5073291;28;20484;-71
2023/10/17 06:17:53;;;;;;;7.50;4.18;;;;;;;;;;5068147;28;20036;-71
2023/10/17 06:20:25;;;;;;;7.72;3.90;;;;;;;;;;5052648;28;20110;-71
2023/10/17 06:28:22;;;;;;;6.43;3.20;;;;;;;;;;5070185;28;20059;-71
2023/10/17 06:30:48;;;;;;;6.78;3.67;;;;;;;;;;5070378;28;20040;-70
2023/10/17 06:33:19;;;;;;;7.25;3.83;;;;;;;;;;5071518;28;20033;-72
2023/10/17 06:35:55;;;;;;;4.80;3.47;;;;;;;;;;5069191;28;20040;-71
2023/10/17 06:38:27;;;;;;;4.30;3.42;;;;;;;;;;5067456;28;20067;-71
2023/10/17 06:41:11;;;;;;;7.18;3.78;;;;;;;;;;5066884;28;20060;-72
2023/10/17 06:43:38;;;;;;;6.22;3.72;;;;;;;;;;5069904;28;20403;-72
2023/10/17 06:46:12;;;;;;;4.65;3.33;;;;;;;;;;5071381;28;20085;-72
2023/10/17 06:48:48;;;;;;;7.68;4.32;;;;;;;;;;5063066;28;20058;-72
2023/10/17 06:53:47;;;;;;;5.70;3.90;;;;;;;;;;5069449;28;20398;-72
2023/10/17 06:56:19;;;;;;;7.15;4.20;;;;;;;;;;5070207;28;20779;-72
2023/10/17 06:58:47;;;;;;;5.97;3.72;;;;;;;;;;5051413;28;20414;-72
2023/10/17 07:01:25;;;;;;;7.40;4.15;;;;;;;;;;5069149;28;20081;-72
2023/10/17 07:03:54;;;;;;;5.70;4.10;;;;;;;;;;5069607;28;20047;-71
2023/10/17 07:06:24;;;;;;;6.53;3.80;;;;;;;;;;5067506;28;20036;-71
2023/10/17 07:08:50;;;;;;;8.13;3.92;;;;;;;;;;5068393;28;20041;-71
2023/10/17 07:13:54;;;;;;;7.78;4.43;;;;;;;;;;5068112;28;20039;-72
2023/10/17 07:16:32;;;;;;;9.38;5.82;;;;;;;;;;5069263;28;20056;-71
2023/10/17 07:19:09;;;;;;;8.45;5.30;;;;;;;;;;5065718;28;20197;-72
2023/10/17 07:24:23;;;;;;;10.50;6.43;;;;;;;;;;5066279;28;20416;-72
2023/10/17 07:26:52;;;;;;;10.93;6.72;;;;;;;;;;5047691;28;20514;-72
2023/10/17 07:29:21;;;;;;;13.07;6.97;;;;;;;;;;5066537;28;20503;-72
2023/10/17 07:31:51;;;;;;;10.38;7.05;;;;;;;;;;5067592;28;20037;-71
2023/10/17 07:34:18;;;;;;;9.45;7.13;;;;;;;;;;5070194;28;20049;-72
2023/10/17 07:36:47;;;;;;;10.98;7.10;;;;;;;;;;5070027;28;20046;-72
2023/10/17 07:39:24;;;;;;;10.02;7.03;;;;;;;;;;5050468;28;20044;-72
2023/10/17 07:41:53;;;;;;;11.98;7.18;;;;;;;;;;5041454;28;20055;-72
2023/10/17 07:44:26;;;;;;;11.75;6.95;;;;;;;;;;5066773;28;20111;-71
2023/10/17 07:47:04;;;;;;;9.75;6.50;;;;;;;;;;5068960;28;20493;-71
2023/10/17 07:49:30;;;;;;;12.52;6.88;;;;;;;;;;5065783;28;20543;-71
2023/10/17 07:51:58;;;;;;;8.90;6.95;;;;;;;;;;5069115;28;20048;-71
2023/10/17 07:54:28;;;;;;;10.10;5.95;;;;;;;;;;5051952;28;20041;-71
2023/10/17 07:56:55;;;;;;;10.57;6.28;;;;;;;;;;5067073;28;20087;-72
2023/10/17 07:59:30;;;;;;;12.75;5.18;;;;;;;;;;5043835;28;20482;-72
2023/10/17 08:01:59;;;;;;;10.88;5.25;;;;;;;;;;5068821;28;20044;-72
2023/10/17 08:04:30;;;;;;;7.60;5.32;;;;;;;;;;5069925;28;20041;-72
2023/10/17 08:06:56;;;;;;;6.03;4.60;;;;;;;;;;5068032;28;20048;-72
2023/10/17 08:11:52;;;;;;;9.00;4.43;;;;;;;;;;5049552;28;20052;-72
2023/10/17 08:14:23;;;;;;;8.10;4.40;;;;;;;;;;5069726;28;20123;-72
2023/10/17 08:16:55;;;;;;;8.55;4.85;;;;;;;;;;5072201;28;20513;-72
2023/10/17 08:19:23;;;;;;;7.20;4.10;;;;;;;;;;5051790;28;20041;-72
2023/10/17 08:24:26;;;;;;;8.32;4.80;;;;;;;;;;5071831;28;20048;-72
2023/10/17 08:27:13;;;;;;;9.70;4.18;;;;;;;;;;5072626;28;20499;-71
2023/10/17 08:29:38;;;;;;;6.70;3.83;;;;;;;;;;5073067;28;20040;-71
2023/10/17 08:32:29;;;;;;;5.97;3.58;;;;;;;;;;5071474;28;20036;-71
2023/10/17 08:35:07;;;;;;;8.98;3.30;;;;;;;;;;5072422;28;20051;-72
2023/10/17 08:37:43;;;;;;;7.32;3.13;;;;;;;;;;5070489;28;20053;-72
2023/10/17 08:40:31;;;;;;;5.38;3.15;;;;;;;;;;5053744;28;20079;-72
2023/10/17 08:43:03;;;;;;;6.72;3.42;;;;;;;;;;5055095;28;20063;-72
2023/10/17 08:45:32;;;;;;;5.63;2.65;;;;;;;;;;5069078;28;20040;-72
2023/10/17 08:48:00;;;;;;;3.90;2.03;;;;;;;;;;5066725;28;20094;-72
2023/10/17 08:50:26;;;;;;;6.05;2.40;;;;;;;;;;5068073;28;20064;-72
2023/10/17 08:52:53;;;;;;;4.68;2.10;;;;;;;;;;5054763;28;20044;-72
2023/10/17 08:55:21;;;;;;;2.33;1.77;;;;;;;;;;5066497;28;20064;-72
2023/10/17 08:57:47;;;;;;;5.75;2.05;;;;;;;;;;5071063;28;20445;-72
2023/10/17 09:02:48;;;;;;;5.78;2.30;;;;;;;;;;5071972;28;20502;-72
2023/10/17 09:05:19;;;;;;;6.10;2.13;;;;;;;;;;5070534;28;20070;-71
2023/10/17 09:07:45;;;;;;;5.65;2.45;;;;;;;;;;5069466;28;20490;-71
2023/10/17 09:10:20;;;;;;;5.15;1.92;;;;;;;;;;5066691;28;20037;-71
2023/10/17 09:15:48;;;;;;;3.83;1.60;;;;;;;;;;5035488;28;20553;-71
2023/10/17 09:18:14;;;;;;;3.67;1.92;;;;;;;;;;5070790;28;20071;-71
2023/10/17 09:20:41;;;;;;;3.95;2.25;;;;;;;;;;5071679;28;20048;-71
2023/10/17 09:23:24;;;;;;;4.43;1.90;;;;;;;;;;5070887;28;20040;-72
2023/10/17 09:25:54;;;;;;;4.93;1.27;;;;;;;;;;5062789;28;20040;-71
2023/10/17 09:28:22;;;;;;;2.95;1.10;;;;;;;;;;5097541;22;20046;-65
2023/10/17 09:30:57;;;;;;;3.50;1.55;;;;;;;;;;5113358;28;20467;-65
2023/10/17 09:33:30;;;;;;;3.95;1.48;;;;;;;;;;5114300;28;20036;-68
2023/10/17 09:35:58;;;;;;;4.35;2.03;;;;;;;;;;5074433;28;20122;-66
2023/10/17 09:38:25;;;;;;;4.72;2.03;;;;;;;;;;5085915;22;20131;-64
2023/10/17 09:40:53;;;;;;;2.53;1.40;;;;;;;;;;5086368;28;20482;-65
2023/10/17 09:43:19;;;;;;;3.80;1.83;;;;;;;;;;5069316;28;20070;-65
2023/10/17 09:45:47;;;;;;;4.72;1.35;;;;;;;;;;5072149;28;20132;-64
2023/10/17 09:48:14;;;;;;;5.65;1.50;;;;;;;;;;5065015;28;20090;-65
2023/10/17 09:50:45;;;;;;;3.15;1.63;;;;;;;;;;5072090;28;20079;-66
2023/10/17 09:53:16;;;;;;;3.85;1.30;;;;;;;;;;5065528;28;20048;-64
2023/10/17 09:55:46;;;;;;;4.10;1.33;;;;;;;;;;5068340;28;20074;-65
2023/10/17 09:58:16;;;;;;;3.60;1.00;;;;;;;;;;5067309;28;20117;-64
2023/10/17 10:00:47;;;;;;;5.93;1.30;;;;;;;;;;5067928;28;20415;-65
2023/10/17 10:03:13;;;;;;;3.05;0.82;;;;;;;;;;5071265;28;20051;-65
2023/10/17 10:05:39;;;;;;;3.17;1.02;;;;;;;;;;5070605;28;20040;-64
2023/10/17 10:08:26;;;;;;;6.15;1.10;;;;;;;;;;5070426;28;20044;-65
2023/10/17 10:10:52;;;;;;;1.88;0.98;;;;;;;;;;5070679;28;20045;-65
2023/10/17 10:13:21;;;;;;;2.17;0.70;;;;;;;;;;5068304;28;20037;-65
2023/10/17 10:15:51;;;;;;;3.17;0.93;;;;;;;;;;5071101;28;20500;-66
2023/10/17 10:18:18;;;;;;;3.00;0.90;;;;;;;;;;5069882;28;20101;-66
2023/10/17 10:20:54;;;;;;;6.95;1.02;;;;;;;;;;5071194;28;20068;-65
2023/10/17 10:23:21;;;;;;;5.25;0.93;;;;;;;;;;5069104;28;20033;-66
2023/10/17 10:26:14;;;;;;;2.10;0.70;;;;;;;;;;5070653;28;20047;-67
2023/10/17 10:28:40;;;;;;;2.42;0.90;;;;;;;;;;5067999;28;20044;-65
2023/10/17 10:31:22;;;;;;;5.13;1.00;;;;;;;;;;5068316;28;20076;-67
2023/10/17 10:33:47;;;;;;;;;;;;;;;;;;5050971;28;20543;-67
2023/10/17 10:36:14;;;;;;;3.65;1.10;;;;;;;;;;5069391;28;19969;-66
2023/10/17 10:38:40;;;;;;;1.45;0.60;;;;;;;;;;5067086;28;20040;-67
2023/10/17 10:41:06;;;;;;;3.10;0.70;;;;;;;;;;5065553;28;20040;-67
2023/10/17 10:43:32;;;;;;;1.27;0.63;;;;;;;;;;5068033;28;20520;-65
2023/10/17 10:46:00;;;;;;;3.50;0.80;;;;;;;;;;5068150;28;20241;-66
2023/10/17 10:48:28;;;;;;;2.58;0.85;;;;;;;;;;5068887;28;20040;-66
2023/10/17 10:50:57;;;;;;;3.38;1.45;;;;;;;;;;5067878;28;20447;-67
2023/10/17 10:53:24;;;;;;;4.35;0.90;;;;;;;;;;5067882;28;20037;-66
2023/10/17 10:56:00;;;;;;;3.45;0.90;;;;;;;;;;5064173;28;20048;-67
2023/10/17 10:58:28;;;;;;;1.83;0.80;;;;;;;;;;5069669;28;20381;-67
2023/10/17 11:00:54;;;;;;;2.28;0.85;;;;;;;;;;5068797;28;20032;-66
2023/10/17 11:03:22;;;;;;;5.78;1.35;;;;;;;;;;5069069;28;20444;-67
2023/10/17 11:05:57;;;;;;;3.33;1.02;;;;;;;;;;5069534;28;20511;-68
2023/10/17 11:08:24;;;;;;;3.70;1.20;;;;;;;;;;5067803;28;20452;-67
2023/10/17 11:10:50;;;;;;;2.35;0.95;;;;;;;;;;5070789;28;20032;-66
2023/10/17 11:13:16;;;;;;;3.60;1.17;;;;;;;;;;5071273;28;20041;-66
2023/10/17 11:15:43;;;;;;;3.47;0.90;;;;;;;;;;5062807;28;20033;-66
2023/10/17 11:18:10;;;;;;;2.58;1.00;;;;;;;;;;5049939;28;20131;-66
2023/10/17 11:20:36;;;;;;;4.28;1.20;;;;;;;;;;5066723;28;20041;-66
2023/10/17 11:23:07;;;;;;;3.38;0.90;;;;;;;;;;5046559;28;20066;-66
2023/10/17 11:25:34;;;;;;;6.15;1.20;;;;;;;;;;5063827;28;20036;-66
2023/10/17 11:28:07;;;;;;;4.22;1.10;;;;;;;;;;5067011;28;20504;-66
2023/10/17 11:30:35;;;;;;;1.60;0.95;;;;;;;;;;5068812;28;20098;-66
2023/10/17 11:33:04;;;;;;;3.00;0.77;;;;;;;;;;5069372;28;20048;-66
2023/10/17 11:35:30;;;;;;;4.85;1.10;;;;;;;;;;5049603;28;20060;-65
2023/10/17 11:37:59;;;;;;;3.92;0.95;;;;;;;;;;5064821;28;20536;-66
2023/10/17 11:40:31;;;;;;;5.18;1.63;;;;;;;;;;5045939;28;20041;-66
2023/10/17 11:42:59;;;;;;;2.42;1.00;;;;;;;;;;5068181;28;20131;-67
2023/10/17 11:45:33;;;;;;;2.92;1.00;;;;;;;;;;5051681;28;20042;-65
2023/10/17 11:48:06;;;;;;;2.63;0.93;;;;;;;;;;5049942;28;20051;-66
2023/10/17 11:50:34;;;;;;;2.97;1.33;;;;;;;;;;5073707;28;20045;-65
2023/10/17 11:53:09;;;;;;;3.00;1.05;;;;;;;;;;5074053;28;20056;-64
2023/10/17 11:55:42;;;;;;;3.00;1.20;;;;;;;;;;5067415;28;20104;-66
2023/10/17 11:58:08;;;;;;;3.50;1.10;;;;;;;;;;5071156;28;20041;-66
2023/10/17 12:00:35;;;;;;;3.83;1.60;;;;;;;;;;5070173;28;20123;-63
2023/10/17 12:03:01;;;;;;;2.45;1.52;;;;;;;;;;5069905;28;20538;-66
2023/10/17 12:05:32;;;;;;;4.78;1.77;;;;;;;;;;5072505;28;20404;-66
2023/10/17 12:07:59;;;;;;;;;;;;;;;;;;5074339;28;20079;-66
2023/10/17 12:10:25;;;;;;;3.03;1.80;;;;;;;;;;5054788;28;19916;-66
2023/10/17 12:13:04;;;;;;;3.20;1.10;;;;;;;;;;5056075;28;20049;-66
2023/10/17 12:15:30;;;;;;;1.85;1.30;;;;;;;;;;5068666;28;20160;-67
2023/10/17 12:17:56;;;;;;;3.45;1.20;;;;;;;;;;5073241;28;20154;-66
2023/10/17 12:20:25;;;;;;;3.38;1.20;;;;;;;;;;5054988;28;20051;-66
2023/10/17 12:22:55;;;;;;;3.97;1.77;;;;;;;;;;5074161;28;20044;-65
2023/10/17 12:25:23;;;;;;;3.75;1.38;;;;;;;;;;5053937;28;20040;-65
2023/10/17 12:27:52;;;;;;;4.72;1.35;;;;;;;;;;5073488;28;20040;-66
2023/10/17 12:30:27;;;;;;;4.72;1.60;;;;;;;;;;5072965;28;20444;-66
2023/10/17 12:32:53;;;;;;;2.35;1.17;;;;;;;;;;5072348;28;20072;-66
2023/10/17 12:35:21;;;;;;;3.25;1.40;;;;;;;;;;5071968;28;20071;-66
2023/10/17 12:37:50;;;;;;;3.65;1.05;;;;;;;;;;5072452;28;20083;-66
2023/10/17 12:40:21;;;;;;;2.40;1.20;;;;;;;;;;5073500;28;20036;-66
2023/10/17 12:42:47;;;;;;;2.13;1.10;;;;;;;;;;5056025;28;20397;-66
2023/10/17 12:45:17;;;;;;;3.58;1.20;;;;;;;;;;5070614;28;20048;-66
2023/10/17 12:47:43;;;;;;;1.77;1.00;;;;;;;;;;5070135;28;20047;-66
2023/10/17 12:50:13;;;;;;;2.97;1.13;;;;;;;;;;5072368;28;20048;-63
2023/10/17 12:52:39;;;;;;;3.42;1.20;;;;;;;;;;5071728;28;20046;-66
2023/10/17 12:55:07;;;;;;;2.70;1.00;;;;;;;;;;5073663;28;20072;-66
2023/10/17 12:57:33;;;;;;;3.65;0.93;;;;;;;;;;5072582;28;20504;-66
2023/10/17 12:59:59;;;;;;;4.25;1.20;;;;;;;;;;5072653;28;20053;-66
2023/10/17 13:02:29;;;;;;;3.35;1.23;;;;;;;;;;5071383;28;20113;-66
2023/10/17 13:04:55;;;;;;;3.83;0.93;;;;;;;;;;5072703;28;20040;-66
2023/10/17 13:07:25;;;;;;;1.77;1.00;;;;;;;;;;5073241;28;20437;-66
2023/10/17 13:09:51;;;;;;;4.68;1.15;;;;;;;;;;5072860;28;20036;-65
2023/10/17 13:12:17;;;;;;;2.75;1.17;;;;;;;;;;5070067;28;20048;-65
2023/10/17 13:14:43;;;;;;;4.40;1.10;;;;;;;;;;5072712;28;20392;-66
2023/10/17 13:17:11;;;;;;;1.65;0.75;;;;;;;;;;5065882;28;20047;-62
2023/10/17 13:19:43;;;;;;;3.03;1.25;;;;;;;;;;5072686;28;20056;-65
2023/10/17 13:22:14;;;;;;;3.28;1.10;;;;;;;;;;5071051;28;20515;-65
2023/10/17 13:24:41;;;;;;;1.92;1.02;;;;;;;;;;5072827;28;20034;-66
2023/10/17 13:27:07;;;;;;;5.45;1.50;;;;;;;;;;5071334;28;20089;-66
2023/10/17 13:29:33;;;;;;;4.57;1.55;;;;;;;;;;5072178;28;20127;-65
2023/10/17 13:32:00;;;;;;;6.22;1.35;;;;;;;;;;5064174;28;20127;-66
2023/10/17 13:34:28;;;;;;;2.28;1.15;;;;;;;;;;5071726;28;20045;-66
2023/10/17 13:36:54;;;;;;;3.15;1.23;;;;;;;;;;5071505;28;20412;-65
2023/10/17 13:39:22;;;;;;;2.05;1.10;;;;;;;;;;5070841;28;20028;-65
2023/10/17 13:41:51;;;;;;;6.93;1.40;;;;;;;;;;5052011;28;20041;-65
2023/10/17 13:44:19;;;;;;;2.80;1.40;;;;;;;;;;5066922;28;20059;-64
2023/10/17 13:46:45;;;;;;;2.13;1.20;;;;;;;;;;5069592;28;20040;-64
2023/10/17 13:49:11;;;;;;;1.55;1.10;;;;;;;;;;5071512;28;20040;-65
2023/10/17 13:51:46;;;;;;;3.20;1.42;;;;;;;;;;5069914;28;20083;-66
2023/10/17 13:54:13;;;;;;;1.83;1.30;;;;;;;;;;5068913;28;20059;-64
2023/10/17 13:56:40;;;;;;;3.67;1.17;;;;;;;;;;5067081;28;20587;-62
2023/10/17 13:59:09;;;;;;;2.17;1.30;;;;;;;;;;5069847;28;20090;-65
2023/10/17 14:01:41;;;;;;;3.47;1.50;;;;;;;;;;5068930;28;20040;-66
2023/10/17 14:04:09;;;;;;;2.80;1.65;;;;;;;;;;5068750;28;20051;-65
2023/10/17 14:06:39;;;;;;;3.75;1.20;;;;;;;;;;5067847;28;20067;-65
2023/10/17 14:09:14;;;;;;;3.17;1.73;;;;;;;;;;5070241;28;20052;-65
2023/10/17 14:11:41;;;;;;;3.05;1.65;;;;;;;;;;5047017;28;20072;-65
2023/10/17 14:14:07;;;;;;;2.58;1.20;;;;;;;;;;5068752;28;20064;-65
2023/10/17 14:16:40;;;;;;;4.43;1.55;;;;;;;;;;5070963;28;20043;-65
2023/10/17 14:19:28;;;;;;;5.47;1.77;;;;;;;;;;5071638;28;20044;-66
2023/10/17 14:27:24;;;;;;;2.55;1.55;;;;;;;;;;5071129;28;20044;-65
2023/10/17 14:29:51;;;;;;;2.23;1.43;;;;;;;;;;5071336;28;20518;-66
2023/10/17 14:32:17;;;;;;;2.97;1.70;;;;;;;;;;5068460;28;20558;-64
2023/10/17 14:34:44;;;;;;;6.75;1.95;;;;;;;;;;5069217;28;20105;-65
2023/10/17 14:37:10;;;;;;;2.55;1.55;;;;;;;;;;5052258;28;20132;-65
2023/10/17 14:39:36;;;;;;;3.95;1.77;;;;;;;;;;5071450;28;20074;-65
2023/10/17 14:42:03;;;;;;;3.00;1.50;;;;;;;;;;5069989;28;20041;-65
2023/10/17 14:44:29;;;;;;;3.63;1.55;;;;;;;;;;5049129;28;20520;-65
2023/10/17 14:46:58;;;;;;;4.80;1.70;;;;;;;;;;5069428;28;20036;-66
2023/10/17 14:49:26;;;;;;;3.63;1.63;;;;;;;;;;5071088;28;20036;-65
2023/10/17 14:51:53;;;;;;;2.88;1.40;;;;;;;;;;5068566;28;20055;-62
2023/10/17 14:54:19;;;;;;;4.90;1.90;;;;;;;;;;5062347;28;20533;-65
2023/10/17 14:56:45;;;;;;;2.47;1.50;;;;;;;;;;5063486;28;20037;-65
2023/10/17 14:59:11;;;;;;;3.47;1.48;;;;;;;;;;5057995;28;20048;-66
2023/10/17 15:01:37;;;;;;;3.00;1.70;;;;;;;;;;5061343;28;20052;-65
2023/10/17 15:04:05;;;;;;;2.00;1.40;;;;;;;;;;5071043;28;20066;-65
2023/10/17 15:06:31;;;;;;;3.63;1.58;;;;;;;;;;5069478;28;20037;-63
2023/10/17 15:08:57;;;;;;;4.25;1.52;;;;;;;;;;5053416;28;20079;-64
2023/10/17 15:11:23;;;;;;;4.65;1.42;;;;;;;;;;5069040;28;20044;-64
2023/10/17 15:13:49;;;;;;;3.63;1.10;;;;;;;;;;5070732;28;20039;-63
2023/10/17 15:16:16;;;;;;;2.67;1.42;;;;;;;;;;5070359;28;20200;-63
2023/10/17 15:18:43;;;;;;;3.17;1.40;;;;;;;;;;5070068;28;20051;-64
2023/10/17 15:21:10;;;;;;;5.63;1.52;;;;;;;;;;5070874;28;20062;-64
2023/10/17 15:23:36;;;;;;;3.30;1.50;;;;;;;;;;5073963;28;20036;-63
2023/10/17 15:26:04;;;;;;;4.53;1.50;;;;;;;;;;5075354;28;20093;-63
2023/10/17 15:28:30;;;;;;;4.18;1.80;;;;;;;;;;5075363;28;20064;-65
2023/10/17 15:31:07;;;;;;;1.98;1.40;;;;;;;;;;5073824;28;20524;-63
2023/10/17 15:33:33;;;;;;;3.72;1.70;;;;;;;;;;5076639;28;20040;-63
2023/10/17 15:36:00;;;;;;;5.57;1.60;;;;;;;;;;5073362;28;20086;-63
2023/10/17 15:38:26;;;;;;;4.75;1.67;;;;;;;;;;5109119;22;20097;-69
2023/10/17 15:40:53;;;;;;;8.32;2.40;;;;;;;;;;5115097;28;20032;-70
2023/10/17 15:43:19;;;;;;;3.70;1.30;;;;;;;;;;5112096;28;20064;-72
2023/10/17 15:45:50;;;;;;;4.75;2.10;;;;;;;;;;5111521;28;20036;-71
2023/10/17 15:48:16;;;;;;;4.32;1.67;;;;;;;;;;5110719;28;20035;-71
2023/10/17 15:50:42;;;;;;;3.30;1.55;;;;;;;;;;5101768;28;20048;-71
2023/10/17 15:53:10;;;;;;;2.75;1.60;;;;;;;;;;5109176;28;20036;-72
2023/10/17 15:55:36;;;;;;;2.42;1.63;;;;;;;;;;5106439;28;20040;-72
2023/10/17 15:58:03;;;;;;;1.85;1.48;;;;;;;;;;5113097;28;20047;-72
2023/10/17 16:00:29;;;;;;;4.05;1.70;;;;;;;;;;5089326;28;20039;-72
2023/10/17 16:02:55;;;;;;;3.95;1.50;;;;;;;;;;5102722;28;20028;-72
2023/10/17 16:05:21;;;;;;;4.05;1.58;;;;;;;;;;5093857;28;20035;-72
2023/10/17 16:07:47;;;;;;;4.90;1.70;;;;;;;;;;5111026;28;20069;-72
2023/10/17 16:10:14;;;;;;;2.55;1.35;;;;;;;;;;5114553;28;20039;-72
2023/10/17 16:12:41;;;;;;;5.10;1.67;;;;;;;;;;5111244;28;20040;-72
2023/10/17 16:15:08;;;;;;;5.57;1.60;;;;;;;;;;5092811;28;20047;-72
2023/10/17 16:17:34;;;;;;;3.97;1.30;;;;;;;;;;5111387;28;20043;-72
2023/10/17 16:20:14;;;;;;;3.25;1.50;;;;;;;;;;5067704;28;20068;-72
2023/10/17 16:22:40;;;;;;;3.28;1.48;;;;;;;;;;5110525;28;20070;-72
2023/10/17 16:25:08;;;;;;;3.67;1.65;;;;;;;;;;5107340;28;20093;-72
2023/10/17 16:27:35;;;;;;;3.85;1.92;;;;;;;;;;5110763;28;20047;-72
2023/10/17 16:30:06;;;;;;;4.97;1.83;;;;;;;;;;5090379;28;20044;-72
2023/10/17 16:32:32;;;;;;;2.15;1.52;;;;;;;;;;5110490;28;20450;-71
2023/10/17 16:35:01;;;;;;;5.45;1.88;;;;;;;;;;5099388;28;20040;-71
2023/10/17 16:37:31;;;;;;;2.08;1.50;;;;;;;;;;5104728;28;20544;-71
2023/10/17 16:39:57;;;;;;;3.55;2.17;;;;;;;;;;5113689;28;20066;-71
2023/10/17 16:42:23;;;;;;;3.30;2.28;;;;;;;;;;5107185;28;20072;-70
2023/10/17 16:44:49;;;;;;;6.72;1.98;;;;;;;;;;5112633;28;20071;-71
2023/10/17 16:47:15;;;;;;;2.95;2.00;;;;;;;;;;5108941;28;20054;-70
2023/10/17 16:49:41;;;;;;;4.82;1.95;;;;;;;;;;5080084;28;20043;-71
2023/10/17 16:52:07;;;;;;;3.00;1.83;;;;;;;;;;5106075;28;20050;-72
2023/10/17 16:54:38;;;;;;;5.15;2.13;;;;;;;;;;5111865;28;20057;-71
2023/10/17 16:57:05;;;;;;;2.95;2.03;;;;;;;;;;5113879;28;20031;-72